Time;durP1;ratioP1;P1;durP2;ratioP2;P2;SDS_P1;SDS_P2;PMS_P1;PMS_P2;Temp;Humidity;BMP_temperature;BMP_pressure;BME280_temperature;BME280_humidity;BME280_pressure;Samples;Min_cycle;Max_cycle;Signal;HPM_P1;HPM_P2
2024/01/28 00:02:00;;;;;;;21.23;8.80;;;2.70;99.90;;;;;;5035387;28;20215;-53
2024/01/28 00:04:26;;;;;;;15.70;7.60;;;2.70;99.90;;;;;;5027288;28;20250;-52
2024/01/28 00:06:53;;;;;;;13.70;7.20;;;2.70;99.90;;;;;;5034407;28;20604;-52
2024/01/28 00:09:21;;;;;;;15.50;8.00;;;2.60;99.90;;;;;;5008401;28;20194;-52
2024/01/28 00:11:48;;;;;;;14.67;7.60;;;2.50;99.90;;;;;;5014963;28;20215;-54
2024/01/28 00:14:15;;;;;;;15.97;7.90;;;2.50;99.90;;;;;;4996977;28;20218;-48
2024/01/28 00:16:42;;;;;;;18.80;8.97;;;2.40;99.90;;;;;;5035980;28;20195;-49
2024/01/28 00:19:10;;;;;;;13.80;7.80;;;2.40;99.90;;;;;;5025095;28;20241;-54
2024/01/28 00:21:37;;;;;;;13.10;7.73;;;2.40;99.90;;;;;;5032419;28;20576;-53
2024/01/28 00:24:04;;;;;;;17.10;7.47;;;2.40;99.90;;;;;;5010238;28;20278;-51
2024/01/28 00:26:37;;;;;;;16.40;8.10;;;2.30;99.90;;;;;;5026519;28;20205;-49
2024/01/28 00:29:04;;;;;;;13.43;8.13;;;2.30;99.90;;;;;;4976921;28;20208;-52
2024/01/28 00:31:31;;;;;;;22.70;8.67;;;2.30;99.90;;;;;;5035324;28;20281;-48
2024/01/28 00:33:57;;;;;;;9.17;7.67;;;2.20;99.90;;;;;;5022791;28;20232;-48
2024/01/28 00:36:24;;;;;;;15.20;7.27;;;2.30;99.90;;;;;;5027397;28;20195;-49
2024/01/28 00:38:51;;;;;;;14.83;7.93;;;2.20;99.90;;;;;;5005407;28;20257;-51
2024/01/28 00:41:26;;;;;;;19.37;8.30;;;2.10;99.90;;;;;;5023267;28;20216;-49
2024/01/28 00:43:55;;;;;;;20.20;8.10;;;2.10;99.90;;;;;;5025845;28;20199;-51
2024/01/28 00:46:23;;;;;;;17.43;7.67;;;2.10;99.90;;;;;;4991487;28;20853;-50
2024/01/28 00:48:50;;;;;;;11.83;6.73;;;2.00;99.90;;;;;;5029130;28;20196;-50
2024/01/28 00:51:17;;;;;;;17.53;7.73;;;2.00;99.90;;;;;;5013856;28;20231;-51
2024/01/28 00:53:44;;;;;;;15.13;7.47;;;1.90;99.90;;;;;;5043266;28;20196;-50
2024/01/28 00:56:13;;;;;;;11.63;6.83;;;1.80;99.90;;;;;;5018016;28;20204;-51
2024/01/28 00:58:40;;;;;;;14.37;7.00;;;1.80;99.90;;;;;;5039206;28;20195;-52
2024/01/28 01:01:08;;;;;;;14.80;7.33;;;1.80;99.90;;;;;;5002124;28;20282;-50
2024/01/28 01:03:35;;;;;;;12.50;6.73;;;1.80;99.90;;;;;;5040527;28;20188;-52
2024/01/28 01:06:01;;;;;;;14.83;7.07;;;1.80;99.90;;;;;;5027908;28;20261;-51
2024/01/28 01:08:32;;;;;;;15.83;7.13;;;1.80;99.90;;;;;;5018294;28;20559;-51
2024/01/28 01:11:03;;;;;;;15.20;6.53;;;1.80;99.90;;;;;;5018476;28;20220;-51
2024/01/28 01:13:30;;;;;;;18.03;7.03;;;1.70;99.90;;;;;;5038067;28;20196;-50
2024/01/28 01:15:58;;;;;;;15.13;6.13;;;1.70;99.90;;;;;;5011256;28;20294;-51
2024/01/28 01:18:26;;;;;;;13.37;6.87;;;1.70;99.90;;;;;;5031362;28;20211;-49
2024/01/28 01:20:53;;;;;;;19.37;7.37;;;1.60;99.90;;;;;;5035668;28;20722;-53
2024/01/28 01:23:20;;;;;;;17.70;7.27;;;1.60;99.90;;;;;;5027692;28;20226;-53
2024/01/28 01:25:47;;;;;;;11.27;6.63;;;1.70;99.90;;;;;;5016248;28;20737;-51
2024/01/28 01:28:14;;;;;;;11.93;6.80;;;1.60;99.90;;;;;;5034617;28;20200;-51
2024/01/28 01:30:40;;;;;;;16.27;7.07;;;1.60;99.90;;;;;;5041164;28;20215;-50
2024/01/28 01:33:07;;;;;;;16.50;7.10;;;1.60;99.90;;;;;;5002423;28;20207;-52
2024/01/28 01:35:36;;;;;;;15.77;7.93;;;1.60;99.90;;;;;;5042178;28;20203;-50
2024/01/28 01:38:03;;;;;;;17.40;6.27;;;1.60;99.90;;;;;;5029479;28;20200;-49
2024/01/28 01:40:29;;;;;;;16.30;7.03;;;1.70;99.90;;;;;;5044064;28;20238;-49
2024/01/28 01:42:56;;;;;;;16.00;7.50;;;1.70;99.90;;;;;;5020072;28;20208;-50
2024/01/28 01:45:23;;;;;;;16.20;6.97;;;1.70;99.90;;;;;;5038507;28;20922;-49
2024/01/28 01:47:50;;;;;;;15.73;6.37;;;1.70;99.90;;;;;;5006832;28;20203;-51
2024/01/28 01:50:17;;;;;;;12.90;6.90;;;1.70;99.90;;;;;;5046025;28;20333;-50
2024/01/28 01:52:46;;;;;;;19.50;7.43;;;1.70;99.90;;;;;;5033274;28;20746;-49
2024/01/28 01:55:13;;;;;;;13.27;6.60;;;1.70;99.90;;;;;;5035453;28;20195;-50
2024/01/28 01:57:42;;;;;;;13.30;6.70;;;1.70;99.90;;;;;;5020913;28;20196;-49
2024/01/28 02:00:12;;;;;;;17.57;7.37;;;1.70;99.90;;;;;;5040679;28;20225;-49
2024/01/28 02:02:41;;;;;;;17.80;7.40;;;1.60;99.90;;;;;;5000074;28;20223;-48
2024/01/28 02:05:08;;;;;;;12.07;6.40;;;1.70;99.90;;;;;;5023957;28;20195;-48
2024/01/28 02:07:35;;;;;;;18.67;6.53;;;1.60;99.90;;;;;;5026876;28;20234;-53
2024/01/28 02:10:05;;;;;;;15.33;6.40;;;1.70;99.90;;;;;;5028994;28;20204;-52
2024/01/28 02:12:32;;;;;;;15.40;7.23;;;1.70;99.90;;;;;;5021171;28;20219;-52
2024/01/28 02:15:06;;;;;;;13.50;6.30;;;1.70;99.90;;;;;;5029568;28;20616;-51
2024/01/28 02:17:32;;;;;;;19.27;6.90;;;1.80;99.90;;;;;;5033748;28;20200;-49
2024/01/28 02:19:59;;;;;;;13.17;6.80;;;1.70;99.90;;;;;;5001782;28;20227;-52
2024/01/28 02:22:26;;;;;;;14.00;6.23;;;1.70;99.90;;;;;;5031488;28;20189;-49
2024/01/28 02:24:55;;;;;;;10.50;6.33;;;1.60;99.90;;;;;;5027021;28;20208;-49
2024/01/28 02:27:22;;;;;;;13.37;6.90;;;1.60;99.90;;;;;;5031866;28;20181;-52
2024/01/28 02:29:48;;;;;;;16.23;6.60;;;1.60;99.90;;;;;;5025528;28;20195;-53
2024/01/28 02:32:17;;;;;;;13.67;6.50;;;1.50;99.90;;;;;;5029515;28;20297;-49
2024/01/28 02:34:44;;;;;;;12.37;6.37;;;1.50;99.90;;;;;;5004975;28;20204;-53
2024/01/28 02:37:13;;;;;;;17.33;6.37;;;1.50;99.90;;;;;;5028585;28;20188;-48
2024/01/28 02:39:40;;;;;;;21.43;8.17;;;1.40;99.90;;;;;;5029544;28;20207;-52
2024/01/28 02:42:08;;;;;;;20.63;7.13;;;1.40;99.90;;;;;;5039243;28;20218;-49
2024/01/28 02:44:35;;;;;;;13.50;7.00;;;1.40;99.90;;;;;;5021971;28;20207;-49
2024/01/28 02:47:02;;;;;;;15.87;7.07;;;1.40;99.90;;;;;;5029294;28;20849;-50
2024/01/28 02:49:29;;;;;;;14.33;7.37;;;1.40;99.90;;;;;;5005925;28;20210;-49
2024/01/28 02:51:55;;;;;;;20.07;7.20;;;1.40;99.90;;;;;;5039177;28;20281;-49
2024/01/28 02:54:23;;;;;;;16.83;6.77;;;1.40;99.90;;;;;;5031937;28;21017;-48
2024/01/28 02:56:50;;;;;;;18.67;7.17;;;1.40;99.90;;;;;;5041448;28;20282;-53
2024/01/28 02:59:18;;;;;;;12.87;7.13;;;1.40;99.90;;;;;;5016664;28;20231;-52
2024/01/28 03:01:46;;;;;;;12.70;6.93;;;1.40;99.90;;;;;;5037023;28;20571;-50
2024/01/28 03:04:13;;;;;;;17.17;7.80;;;1.50;99.90;;;;;;4995880;28;20208;-49
2024/01/28 03:06:40;;;;;;;14.63;6.90;;;1.50;99.90;;;;;;5041599;28;20219;-51
2024/01/28 03:09:07;;;;;;;16.60;7.23;;;1.50;99.90;;;;;;5024659;28;20200;-50
2024/01/28 03:11:35;;;;;;;15.97;8.00;;;1.50;99.90;;;;;;5023463;28;20310;-52
2024/01/28 03:14:02;;;;;;;15.47;7.97;;;1.50;99.90;;;;;;5012115;28;20644;-50
2024/01/28 03:16:30;;;;;;;10.63;6.53;;;1.40;99.90;;;;;;5035520;28;20203;-50
2024/01/28 03:18:57;;;;;;;13.40;7.03;;;1.40;99.90;;;;;;5024060;28;20239;-51
2024/01/28 03:21:23;;;;;;;15.47;7.50;;;1.40;99.90;;;;;;5008593;28;20214;-51
2024/01/28 03:23:50;;;;;;;20.90;6.87;;;1.30;99.90;;;;;;5030769;28;20257;-50
2024/01/28 03:26:19;;;;;;;18.90;7.67;;;1.30;99.90;;;;;;5024937;28;20271;-50
2024/01/28 03:28:46;;;;;;;18.57;7.47;;;1.30;99.90;;;;;;5029936;28;20267;-49
2024/01/28 03:31:13;;;;;;;12.83;6.63;;;1.30;99.90;;;;;;5013047;28;20529;-50
2024/01/28 03:33:42;;;;;;;16.93;7.03;;;1.30;99.90;;;;;;5029417;28;20294;-48
2024/01/28 03:36:09;;;;;;;17.10;6.97;;;1.20;99.90;;;;;;4999867;28;20330;-48
2024/01/28 03:38:35;;;;;;;9.10;6.63;;;1.20;99.90;;;;;;5031649;28;20200;-51
2024/01/28 03:41:02;;;;;;;12.63;7.13;;;1.20;99.90;;;;;;5025654;28;20265;-54
2024/01/28 03:43:29;;;;;;;16.47;7.33;;;1.10;99.90;;;;;;5028853;28;20196;-50
2024/01/28 03:45:56;;;;;;;12.70;7.10;;;1.10;99.90;;;;;;5020209;28;20332;-50
2024/01/28 03:48:23;;;;;;;16.20;7.43;;;1.10;99.90;;;;;;5027478;28;20201;-52
2024/01/28 03:50:52;;;;;;;12.60;7.00;;;1.10;99.90;;;;;;5002302;28;20227;-53
2024/01/28 03:53:18;;;;;;;13.53;6.97;;;1.10;99.90;;;;;;5033615;28;20218;-49
2024/01/28 03:55:46;;;;;;;12.50;7.77;;;1.00;99.90;;;;;;5032868;28;20215;-49
2024/01/28 03:58:13;;;;;;;14.00;6.93;;;1.10;99.90;;;;;;5021559;28;20981;-49
2024/01/28 04:00:40;;;;;;;19.67;7.50;;;1.00;99.90;;;;;;5030495;28;20662;-49
2024/01/28 04:03:08;;;;;;;19.87;7.57;;;1.00;99.90;;;;;;5021818;28;20508;-49
2024/01/28 04:05:35;;;;;;;14.60;6.23;;;1.00;99.90;;;;;;5034225;28;20235;-49
2024/01/28 04:08:04;;;;;;;17.93;7.57;;;1.00;99.90;;;;;;5012251;28;20685;-49
2024/01/28 04:10:30;;;;;;;12.17;6.50;;;1.00;99.90;;;;;;5026053;28;20212;-49
2024/01/28 04:12:57;;;;;;;13.57;6.63;;;0.90;99.90;;;;;;5021653;28;20216;-48
2024/01/28 04:15:24;;;;;;;11.97;6.57;;;0.80;99.90;;;;;;5016978;28;20195;-50
2024/01/28 04:17:51;;;;;;;10.37;6.10;;;0.80;99.90;;;;;;5020411;28;20199;-51
2024/01/28 04:20:18;;;;;;;14.40;6.77;;;0.70;99.90;;;;;;5031938;28;20196;-49
2024/01/28 04:22:45;;;;;;;20.20;6.80;;;0.70;99.90;;;;;;5002233;28;20211;-49
2024/01/28 04:25:13;;;;;;;12.67;6.80;;;0.60;99.90;;;;;;5027897;28;20191;-49
2024/01/28 04:27:40;;;;;;;15.20;7.03;;;0.60;99.90;;;;;;5029873;28;20253;-49
2024/01/28 04:30:09;;;;;;;12.10;6.27;;;0.60;99.90;;;;;;5030941;28;21107;-49
2024/01/28 04:32:36;;;;;;;13.83;6.93;;;0.70;99.90;;;;;;5035597;28;20623;-52
2024/01/28 04:35:03;;;;;;;18.40;6.87;;;0.70;99.90;;;;;;5027025;28;20217;-53
2024/01/28 04:37:30;;;;;;;11.97;7.20;;;0.60;99.90;;;;;;4998878;28;20202;-48
2024/01/28 04:39:58;;;;;;;17.97;7.30;;;0.60;99.90;;;;;;5033651;28;20203;-48
2024/01/28 04:42:26;;;;;;;15.67;7.00;;;0.60;99.90;;;;;;5023805;28;20204;-49
2024/01/28 04:44:53;;;;;;;12.90;6.60;;;0.60;99.90;;;;;;5024203;28;20203;-51
2024/01/28 04:47:20;;;;;;;14.03;7.20;;;0.60;99.90;;;;;;5026481;28;20187;-49
2024/01/28 04:49:47;;;;;;;10.77;7.10;;;0.60;99.90;;;;;;5023005;28;20230;-52
2024/01/28 04:52:14;;;;;;;14.83;7.27;;;0.60;99.90;;;;;;5019880;28;20225;-50
2024/01/28 04:54:41;;;;;;;19.23;6.93;;;0.60;99.90;;;;;;5000662;28;20668;-48
2024/01/28 04:57:08;;;;;;;13.73;6.20;;;0.60;99.90;;;;;;5025003;28;20253;-50
2024/01/28 04:59:37;;;;;;;17.13;6.73;;;0.50;99.90;;;;;;5023534;28;20202;-49
2024/01/28 05:02:05;;;;;;;19.13;6.70;;;0.50;99.90;;;;;;5031285;28;20301;-50
2024/01/28 05:04:33;;;;;;;18.33;6.87;;;0.50;99.90;;;;;;5018802;28;20590;-50
2024/01/28 05:07:00;;;;;;;14.63;6.90;;;0.50;99.90;;;;;;5022765;28;20200;-49
2024/01/28 05:09:27;;;;;;;15.10;6.90;;;0.50;99.90;;;;;;5011784;28;20285;-53
2024/01/28 05:11:54;;;;;;;15.63;6.90;;;0.50;99.90;;;;;;5028102;28;20647;-50
2024/01/28 05:14:21;;;;;;;12.50;6.67;;;0.50;99.90;;;;;;5025955;28;20275;-52
2024/01/28 05:16:49;;;;;;;10.40;6.50;;;0.50;99.90;;;;;;5034357;28;20200;-49
2024/01/28 05:19:16;;;;;;;15.43;6.57;;;0.50;99.90;;;;;;5019763;28;20276;-48
2024/01/28 05:21:43;;;;;;;17.77;7.07;;;0.50;99.90;;;;;;5025162;28;20316;-49
2024/01/28 05:24:10;;;;;;;18.93;6.53;;;0.50;99.90;;;;;;5036257;28;20278;-51
2024/01/28 05:26:37;;;;;;;11.60;6.00;;;0.40;99.90;;;;;;5000471;28;20210;-52
2024/01/28 05:29:05;;;;;;;15.47;7.60;;;0.40;99.90;;;;;;5031512;28;20226;-49
2024/01/28 05:31:33;;;;;;;17.30;7.57;;;0.40;99.90;;;;;;5029307;28;20237;-53
2024/01/28 05:34:02;;;;;;;16.00;6.77;;;0.40;99.90;;;;;;5033369;28;20318;-50
2024/01/28 05:36:29;;;;;;;16.10;7.73;;;0.40;99.90;;;;;;5012659;28;20721;-51
2024/01/28 05:38:57;;;;;;;16.77;7.33;;;0.40;99.90;;;;;;5034792;28;20207;-48
2024/01/28 05:41:24;;;;;;;17.00;7.00;;;0.40;99.90;;;;;;4999000;28;20230;-48
2024/01/28 05:43:51;;;;;;;15.83;6.93;;;0.40;99.90;;;;;;5030040;28;20951;-49
2024/01/28 05:46:18;;;;;;;17.40;7.60;;;0.40;99.90;;;;;;5023210;28;20220;-48
2024/01/28 05:48:44;;;;;;;14.73;7.63;;;0.40;99.90;;;;;;5026356;28;20953;-49
2024/01/28 05:51:13;;;;;;;15.40;7.80;;;0.50;99.90;;;;;;5017501;28;20237;-51
2024/01/28 05:53:40;;;;;;;16.87;7.07;;;0.40;99.90;;;;;;5017090;28;20216;-51
2024/01/28 05:56:07;;;;;;;19.00;7.20;;;0.50;99.90;;;;;;5010670;28;20293;-50
2024/01/28 05:58:35;;;;;;;19.47;7.83;;;0.40;99.90;;;;;;5025438;28;20265;-49
2024/01/28 06:01:06;;;;;;;17.57;7.63;;;0.40;99.90;;;;;;5030573;28;20223;-50
2024/01/28 06:03:33;;;;;;;17.43;7.83;;;0.40;99.90;;;;;;5027156;28;20849;-53
2024/01/28 06:06:01;;;;;;;20.43;8.93;;;0.40;99.90;;;;;;5020100;28;20206;-51
2024/01/28 06:08:30;;;;;;;15.23;6.90;;;0.40;99.90;;;;;;5024267;28;20549;-51
2024/01/28 06:10:57;;;;;;;20.63;7.73;;;0.30;99.90;;;;;;4999676;28;20218;-49
2024/01/28 06:13:24;;;;;;;18.40;7.87;;;0.30;99.90;;;;;;5033871;28;20631;-49
2024/01/28 06:15:52;;;;;;;18.80;7.20;;;0.30;99.90;;;;;;5023554;28;20195;-48
2024/01/28 06:18:21;;;;;;;16.73;7.73;;;0.30;99.90;;;;;;5030324;28;20234;-50
2024/01/28 06:20:48;;;;;;;18.83;6.67;;;0.30;99.90;;;;;;5024029;28;20868;-50
2024/01/28 06:23:15;;;;;;;15.97;7.17;;;0.30;99.90;;;;;;5027219;28;20207;-51
2024/01/28 06:25:43;;;;;;;13.50;7.27;;;0.30;99.90;;;;;;5026970;28;20196;-48
2024/01/28 06:28:10;;;;;;;18.00;6.13;;;0.30;99.90;;;;;;5013767;28;20776;-52
2024/01/28 06:30:37;;;;;;;17.07;7.37;;;0.30;99.90;;;;;;5024509;28;20314;-48
2024/01/28 06:33:04;;;;;;;16.20;6.87;;;0.20;99.90;;;;;;5027313;28;20211;-49
2024/01/28 06:35:31;;;;;;;13.97;7.13;;;0.20;99.90;;;;;;5028784;28;20627;-52
2024/01/28 06:37:58;;;;;;;17.03;7.47;;;0.30;99.90;;;;;;5019218;28;20215;-53
2024/01/28 06:40:25;;;;;;;14.80;7.73;;;0.20;99.90;;;;;;5015440;28;23372;-52
2024/01/28 06:42:53;;;;;;;14.50;6.50;;;0.20;99.90;;;;;;5018156;28;20210;-51
2024/01/28 06:45:20;;;;;;;14.87;7.63;;;0.20;99.90;;;;;;5045681;28;20255;-52
2024/01/28 06:47:47;;;;;;;13.13;6.57;;;0.20;99.90;;;;;;5022602;28;20395;-51
2024/01/28 06:50:14;;;;;;;17.73;7.37;;;0.10;99.90;;;;;;5023644;28;20794;-50
2024/01/28 06:52:42;;;;;;;14.27;6.87;;;0.10;99.90;;;;;;5028213;28;20210;-49
2024/01/28 06:55:10;;;;;;;13.63;6.57;;;0.10;99.90;;;;;;5014245;28;20312;-50
2024/01/28 06:57:36;;;;;;;16.17;6.63;;;0.10;99.90;;;;;;5033576;28;20214;-48
2024/01/28 07:00:10;;;;;;;13.17;6.73;;;0.10;99.90;;;;;;4999339;28;20202;-52
2024/01/28 07:02:37;;;;;;;13.27;6.80;;;0.20;99.90;;;;;;5028315;28;20667;-50
2024/01/28 07:05:04;;;;;;;15.00;6.23;;;0.20;99.90;;;;;;5025716;28;20260;-52
2024/01/28 07:07:32;;;;;;;23.13;7.57;;;0.10;99.90;;;;;;5038273;28;20260;-48
2024/01/28 07:09:59;;;;;;;11.10;6.37;;;0.10;99.90;;;;;;5011033;28;20207;-50
2024/01/28 07:12:25;;;;;;;12.20;6.63;;;0.10;99.90;;;;;;5033016;28;20310;-52
2024/01/28 07:14:52;;;;;;;13.90;6.50;;;0.10;99.90;;;;;;5003890;28;20253;-50
2024/01/28 07:17:20;;;;;;;14.43;6.40;;;0.10;99.90;;;;;;5033890;28;20343;-50
2024/01/28 07:19:47;;;;;;;14.50;7.40;;;0.10;99.90;;;;;;5029669;28;20256;-49
2024/01/28 07:22:14;;;;;;;18.20;8.07;;;0.10;99.90;;;;;;5022373;28;20230;-50
2024/01/28 07:24:41;;;;;;;16.00;7.40;;;0.10;99.90;;;;;;5021125;28;20204;-52
2024/01/28 07:27:08;;;;;;;17.20;6.33;;;0.10;99.90;;;;;;5015089;28;20284;-48
2024/01/28 07:29:35;;;;;;;14.03;7.23;;;0.20;99.90;;;;;;5000838;28;20261;-53
2024/01/28 07:32:02;;;;;;;13.10;6.00;;;0.20;99.90;;;;;;5032326;28;20223;-50
2024/01/28 07:34:30;;;;;;;17.13;6.50;;;0.20;99.90;;;;;;5032940;28;20211;-49
2024/01/28 07:36:57;;;;;;;9.37;6.37;;;0.30;99.90;;;;;;5021768;28;20229;-49
2024/01/28 07:39:24;;;;;;;16.67;6.33;;;0.30;99.90;;;;;;5034266;28;20284;-49
2024/01/28 07:41:51;;;;;;;17.33;7.53;;;0.30;99.90;;;;;;5012515;28;20229;-49
2024/01/28 07:44:18;;;;;;;15.67;6.57;;;0.40;99.90;;;;;;5001422;28;20255;-52
2024/01/28 07:46:45;;;;;;;13.77;6.63;;;0.40;99.90;;;;;;5028398;28;20199;-51
2024/01/28 07:49:12;;;;;;;18.57;7.13;;;0.50;99.90;;;;;;5022495;28;20285;-49
2024/01/28 07:51:40;;;;;;;15.20;6.20;;;0.50;99.90;;;;;;5018340;28;20227;-51
2024/01/28 07:54:07;;;;;;;15.93;6.73;;;0.60;99.90;;;;;;5032062;28;20999;-48
2024/01/28 07:56:34;;;;;;;20.67;6.73;;;0.60;99.90;;;;;;5022852;28;20706;-53
2024/01/28 07:59:01;;;;;;;15.90;6.57;;;0.70;99.90;;;;;;5018355;28;20222;-53
2024/01/28 08:01:30;;;;;;;12.80;6.10;;;0.70;99.90;;;;;;5006865;28;20226;-52
2024/01/28 08:03:57;;;;;;;11.97;6.17;;;0.70;99.90;;;;;;5023265;28;20209;-48
2024/01/28 08:06:24;;;;;;;13.03;5.67;;;0.80;99.90;;;;;;5028395;28;20535;-49
2024/01/28 08:08:52;;;;;;;14.87;6.10;;;0.90;99.90;;;;;;5019496;28;20223;-50
2024/01/28 08:11:20;;;;;;;18.40;6.23;;;0.90;99.90;;;;;;5036549;28;20323;-50
2024/01/28 08:13:48;;;;;;;16.23;6.07;;;1.00;99.90;;;;;;5027788;28;20279;-52
2024/01/28 08:16:15;;;;;;;14.53;5.87;;;1.00;99.90;;;;;;5013632;28;20218;-48
2024/01/28 08:18:42;;;;;;;19.53;7.43;;;1.00;99.90;;;;;;5042254;28;20198;-53
2024/01/28 08:21:09;;;;;;;14.80;5.87;;;1.10;99.90;;;;;;5039863;28;20252;-50
2024/01/28 08:23:36;;;;;;;15.33;5.60;;;1.10;99.90;;;;;;5025003;28;20617;-52
2024/01/28 08:26:05;;;;;;;15.67;5.60;;;1.10;99.90;;;;;;5026823;28;20191;-48
2024/01/28 08:28:32;;;;;;;18.00;6.00;;;1.10;99.90;;;;;;5038256;28;20641;-51
2024/01/28 08:30:59;;;;;;;13.17;5.57;;;1.20;99.90;;;;;;4996945;28;20238;-50
2024/01/28 08:33:26;;;;;;;14.33;6.47;;;1.20;99.90;;;;;;5050234;28;20204;-49
2024/01/28 08:35:53;;;;;;;13.90;5.80;;;1.20;99.90;;;;;;5025106;28;20199;-48
2024/01/28 08:38:19;;;;;;;13.47;6.13;;;1.20;99.90;;;;;;5026356;28;20214;-50
2024/01/28 08:40:46;;;;;;;20.17;6.63;;;1.30;99.90;;;;;;5025247;28;20898;-52
2024/01/28 08:43:14;;;;;;;10.50;5.00;;;1.30;99.90;;;;;;5019929;28;20202;-49
2024/01/28 08:45:43;;;;;;;12.83;5.43;;;1.30;99.90;;;;;;5008811;28;20244;-51
2024/01/28 08:48:10;;;;;;;17.10;5.33;;;1.40;99.90;;;;;;5034157;28;20203;-51
2024/01/28 08:50:37;;;;;;;9.00;4.50;;;1.40;99.90;;;;;;5033169;28;20217;-51
2024/01/28 08:53:05;;;;;;;13.37;5.87;;;1.50;99.90;;;;;;5028668;28;20724;-49
2024/01/28 08:55:32;;;;;;;12.87;5.10;;;1.50;99.90;;;;;;5031329;28;20633;-53
2024/01/28 08:57:59;;;;;;;11.90;5.03;;;1.60;99.90;;;;;;5012774;28;20187;-48
2024/01/28 09:00:27;;;;;;;19.47;6.00;;;1.60;99.90;;;;;;5028075;28;20247;-52
2024/01/28 09:02:54;;;;;;;8.83;4.20;;;1.70;99.90;;;;;;5001727;28;20296;-48
2024/01/28 09:05:21;;;;;;;11.67;4.53;;;1.80;99.90;;;;;;5036048;28;20203;-50
2024/01/28 09:07:48;;;;;;;11.37;5.13;;;1.90;99.90;;;;;;5027725;28;20673;-53
2024/01/28 09:10:13;;;;;;;13.00;5.23;;;2.00;99.90;;;;;;5030737;28;20211;-48
2024/01/28 09:12:40;;;;;;;10.37;4.60;;;2.00;99.90;;;;;;5032428;28;20482;-51
2024/01/28 09:15:08;;;;;;;10.13;3.93;;;2.20;99.90;;;;;;5010453;28;20866;-50
2024/01/28 09:17:36;;;;;;;10.67;4.40;;;2.40;99.90;;;;;;5005474;28;20280;-48
2024/01/28 09:20:04;;;;;;;10.90;4.30;;;2.60;99.90;;;;;;5040340;28;20199;-48
2024/01/28 09:22:33;;;;;;;12.23;4.20;;;2.70;99.90;;;;;;5034187;28;20611;-52
2024/01/28 09:25:01;;;;;;;7.67;4.33;;;2.70;99.90;;;;;;5028463;28;20992;-50
2024/01/28 09:27:28;;;;;;;9.30;3.70;;;2.70;99.90;;;;;;5033697;28;20543;-51
2024/01/28 09:29:55;;;;;;;10.67;3.50;;;2.80;99.90;;;;;;5011110;28;21236;-49
2024/01/28 09:32:24;;;;;;;9.77;3.80;;;2.80;99.90;;;;;;5012622;28;20765;-49
2024/01/28 09:34:53;;;;;;;15.57;3.17;;;2.90;99.90;;;;;;5032615;28;20277;-48
2024/01/28 09:37:21;;;;;;;8.43;3.53;;;3.00;99.90;;;;;;5029035;28;20266;-52
2024/01/28 09:39:48;;;;;;;10.73;3.63;;;3.00;99.90;;;;;;5041886;28;20187;-50
2024/01/28 09:42:22;;;;;;;6.10;3.10;;;3.10;99.90;;;;;;5030676;28;20223;-53
2024/01/28 09:44:50;;;;;;;7.70;3.20;;;3.20;99.90;;;;;;5042101;28;20198;-50
2024/01/28 09:47:18;;;;;;;10.33;3.17;;;3.20;99.90;;;;;;5019035;28;20261;-53
2024/01/28 09:49:45;;;;;;;9.87;3.07;;;3.30;99.90;;;;;;5027805;28;20786;-49
2024/01/28 09:52:14;;;;;;;10.80;3.60;;;3.40;99.90;;;;;;5034661;28;20216;-51
2024/01/28 09:54:44;;;;;;;8.67;3.30;;;3.50;99.90;;;;;;5034194;28;20215;-48
2024/01/28 09:57:12;;;;;;;11.03;3.07;;;3.50;99.90;;;;;;5003446;28;20634;-48
2024/01/28 09:59:39;;;;;;;8.57;3.53;;;3.60;99.90;;;;;;5029946;28;20199;-50
2024/01/28 10:02:07;;;;;;;7.97;2.80;;;3.70;99.90;;;;;;5025458;28;20250;-48
2024/01/28 10:04:34;;;;;;;8.23;2.87;;;3.80;99.90;;;;;;5000863;28;20215;-52
2024/01/28 10:07:02;;;;;;;5.10;2.73;;;3.90;99.90;;;;;;5020193;28;20196;-47
2024/01/28 10:09:31;;;;;;;6.87;2.80;;;4.00;99.90;;;;;;5036642;28;20210;-49
2024/01/28 10:11:59;;;;;;;8.60;2.30;;;4.10;99.90;;;;;;5030992;28;20286;-49
2024/01/28 10:14:26;;;;;;;5.50;2.27;;;4.10;99.90;;;;;;5042126;28;20220;-48
2024/01/28 10:16:53;;;;;;;7.87;2.57;;;4.20;99.90;;;;;;5020079;28;20203;-49
2024/01/28 10:19:20;;;;;;;9.60;3.27;;;4.30;99.90;;;;;;5005474;28;20215;-47
2024/01/28 10:21:47;;;;;;;5.67;2.87;;;4.40;99.90;;;;;;5034741;28;20208;-53
2024/01/28 10:24:16;;;;;;;7.33;2.37;;;4.60;99.90;;;;;;5030214;28;20200;-51
2024/01/28 10:26:44;;;;;;;7.30;2.13;;;4.70;99.90;;;;;;5035697;28;20278;-52
2024/01/28 10:29:13;;;;;;;11.03;2.70;;;4.70;99.90;;;;;;5022319;28;20207;-50
2024/01/28 10:31:40;;;;;;;2.97;2.13;;;4.70;99.90;;;;;;5026368;28;20234;-52
2024/01/28 10:34:08;;;;;;;8.20;2.30;;;4.70;99.90;;;;;;5028960;28;20240;-50
2024/01/28 10:36:36;;;;;;;8.70;2.27;;;4.70;99.90;;;;;;5002069;28;20203;-53
2024/01/28 10:39:04;;;;;;;8.90;2.77;;;4.80;99.90;;;;;;5023983;28;20250;-48
2024/01/28 10:41:32;;;;;;;6.90;2.50;;;4.80;99.90;;;;;;5035450;28;20703;-49
2024/01/28 10:44:08;;;;;;;6.10;2.70;;;4.80;99.90;;;;;;5020470;28;20287;-49
2024/01/28 10:46:38;;;;;;;7.57;2.13;;;4.90;99.90;;;;;;5030875;28;20191;-54
2024/01/28 10:49:06;;;;;;;7.50;2.17;;;4.90;99.90;;;;;;5027105;28;20191;-47
2024/01/28 10:51:35;;;;;;;5.60;2.60;;;4.90;99.90;;;;;;5002311;28;20249;-53
2024/01/28 10:54:07;;;;;;;7.13;2.53;;;5.00;99.90;;;;;;5030662;28;20216;-50
2024/01/28 10:56:34;;;;;;;8.83;2.63;;;5.00;99.90;;;;;;5032077;28;20272;-55
2024/01/28 10:59:03;;;;;;;6.90;2.50;;;5.10;99.90;;;;;;5023197;28;20384;-52
2024/01/28 11:01:31;;;;;;;5.03;2.20;;;5.20;99.90;;;;;;5045672;28;20208;-54
2024/01/28 11:03:59;;;;;;;4.40;2.50;;;5.30;99.90;;;;;;5028889;28;20214;-51
2024/01/28 11:06:27;;;;;;;8.13;2.63;;;5.30;99.90;;;;;;5006987;28;20227;-50
2024/01/28 11:08:55;;;;;;;6.73;2.43;;;5.40;99.90;;;;;;5027667;28;20195;-53
2024/01/28 11:11:22;;;;;;;6.80;2.47;;;5.60;99.90;;;;;;5026205;28;20230;-53
2024/01/28 11:13:49;;;;;;;5.10;2.13;;;5.60;99.90;;;;;;5032486;28;20203;-55
2024/01/28 11:16:19;;;;;;;6.17;2.10;;;5.70;99.90;;;;;;5030417;28;20207;-50
2024/01/28 11:18:56;;;;;;;4.83;2.40;;;5.70;99.90;;;;;;5024662;28;20713;-54
2024/01/28 11:21:25;;;;;;;7.60;2.53;;;5.70;99.90;;;;;;5031998;28;20211;-53
2024/01/28 11:23:54;;;;;;;5.57;2.23;;;5.70;99.90;;;;;;5002243;28;20611;-55
2024/01/28 11:26:21;;;;;;;6.43;2.40;;;5.80;99.90;;;;;;5025640;28;20740;-52
2024/01/28 11:28:49;;;;;;;4.03;1.90;;;5.80;99.90;;;;;;5030252;28;20192;-55
2024/01/28 11:31:29;;;;;;;10.20;2.90;;;5.80;99.90;;;;;;5033544;28;20227;-53
2024/01/28 11:33:56;;;;;;;7.70;2.37;;;5.80;99.90;;;;;;5012126;28;20648;-53
2024/01/28 11:36:28;;;;;;;4.63;1.83;;;5.90;99.90;;;;;;5022614;28;20211;-52
2024/01/28 11:39:04;;;;;;;5.57;2.33;;;6.00;99.90;;;;;;4997780;28;21503;-54
2024/01/28 11:41:36;;;;;;;4.20;2.13;;;6.00;99.90;;;;;;5021865;28;20223;-54
2024/01/28 11:44:04;;;;;;;6.83;1.90;;;6.10;99.90;;;;;;5031122;28;20269;-55
2024/01/28 11:46:33;;;;;;;6.23;2.20;;;6.10;99.90;;;;;;5030610;28;20203;-53
2024/01/28 11:49:00;;;;;;;6.00;1.93;;;6.20;99.90;;;;;;5026816;28;20241;-52
2024/01/28 11:51:31;;;;;;;4.73;2.07;;;6.30;99.90;;;;;;5005208;28;20227;-53
2024/01/28 11:54:00;;;;;;;4.37;1.83;;;6.30;99.90;;;;;;5004163;28;20294;-51
2024/01/28 11:56:27;;;;;;;7.93;1.97;;;6.30;99.90;;;;;;5029100;28;20200;-50
2024/01/28 11:58:55;;;;;;;5.47;2.30;;;6.40;99.90;;;;;;5022721;28;20782;-50
2024/01/28 12:01:22;;;;;;;3.37;1.80;;;6.50;99.90;;;;;;5025889;28;20274;-49
2024/01/28 12:03:54;;;;;;;6.87;2.27;;;6.50;99.90;;;;;;5043601;28;20200;-52
2024/01/28 12:06:21;;;;;;;3.23;1.70;;;6.50;99.90;;;;;;5008660;28;20254;-50
2024/01/28 12:08:48;;;;;;;9.83;2.20;;;6.50;99.90;;;;;;5012521;28;20784;-49
2024/01/28 12:11:19;;;;;;;4.63;1.60;;;6.60;99.90;;;;;;5026619;28;20293;-54
2024/01/28 12:13:46;;;;;;;10.43;2.67;;;6.60;99.90;;;;;;5029101;28;20616;-54
2024/01/28 12:16:13;;;;;;;4.50;1.60;;;6.70;99.90;;;;;;5029853;28;20241;-54
2024/01/28 12:18:41;;;;;;;9.57;2.43;;;6.70;99.90;;;;;;5031957;28;20262;-53
2024/01/28 12:21:18;;;;;;;2.57;1.40;;;6.70;99.90;;;;;;5029748;28;20703;-51
2024/01/28 12:23:46;;;;;;;3.20;2.00;;;6.80;99.90;;;;;;5034052;28;20199;-51
2024/01/28 12:26:14;;;;;;;2.47;1.33;;;6.80;99.90;;;;;;4993177;28;20206;-54
2024/01/28 12:28:41;;;;;;;3.27;1.80;;;6.80;99.90;;;;;;5018375;28;20210;-52
2024/01/28 12:31:09;;;;;;;4.57;1.70;;;6.90;99.90;;;;;;5040579;28;20714;-54
2024/01/28 12:33:36;;;;;;;3.67;1.30;;;6.90;99.90;;;;;;5023364;28;20210;-54
2024/01/28 12:36:03;;;;;;;3.67;1.50;;;7.00;99.90;;;;;;5038084;28;20285;-54
2024/01/28 12:38:31;;;;;;;4.20;1.50;;;7.00;99.90;;;;;;5017233;28;20204;-51
2024/01/28 12:40:58;;;;;;;4.97;1.70;;;7.00;99.90;;;;;;5006688;28;20227;-54
2024/01/28 12:43:25;;;;;;;4.13;1.33;;;7.10;99.90;;;;;;5015028;28;20214;-50
2024/01/28 12:45:52;;;;;;;4.63;1.40;;;7.10;99.90;;;;;;5037092;28;20192;-53
2024/01/28 12:48:19;;;;;;;3.43;1.53;;;7.10;99.90;;;;;;5026751;28;20211;-53
2024/01/28 12:50:46;;;;;;;4.43;1.90;;;7.20;99.90;;;;;;5028895;28;20220;-50
2024/01/28 12:53:13;;;;;;;4.10;2.07;;;7.20;99.90;;;;;;5015295;28;20258;-54